Naxos, Greece

3:55 PM EEST on July 24, 2016 (GMT +0300)
IU039DU03 | | Change Station

Elev 135 ft 37.09 °N, 25.40 °E | Updated 3 seconds ago

Clear
Clear
84.8 °F
Feels Like 86 °F
N
18.6
Wind Variable Wind from WNW
Gusts 36.8 mph

Today
High -- | Low -- °F
--% Chance of Precip.
Yesterday
High -- | Low -- °F
Precip. -- in
Pressure 29.83 in
Visibility -9999.0 miles
Clouds
Heat Index 86 °F
Dew Point 64 °F
Humidity 50%
Rainfall 0.00 in
Snow Depth Not available.
6:17 AM 8:32 PM
Waning Gibbous, 76% visible
METAR LGMK 241220Z 34016KT CAVOK 30/18 Q1010
Pressure 29.83 in
Visibility -9999.0 miles
Clouds
Heat Index 86 °F
Dew Point 64 °F
Humidity 50%
Rainfall 0.00 in
Snow Depth Not available.
6:17 AM 8:32 PM
Waning Gibbous, 76% visible
METAR LGMK 241220Z 34016KT CAVOK 30/18 Q1010

10-Day Weather Forecast

×

Almanac

Astronomy

Jul. 24, 2016 Rise Set
Actual Time
Civil Twilight
Nautical Twilight
Astronomical Twilight
Moon
Length of Visible Light
Length of Day
Tomorrow will be .
, % of the Moon is Illuminated

Today's Extremes

Country Highs Country Lows

Community

WunderPhotos

Upload Photos

1,927,054 photos uploaded!

WunderBlog® & News

Nearby

Air Quality

  Air Quality AQ Index Pollutant
Not available.

Snow Depth

Station Depth Elevation

Earthquake Activity

City Distance Mag. Time & Date
Minimum magnitude displayed is 2.5.

Coastal Water Temperatures

Place Temperature

Stations

Nearby Weather Stations

Station Location Temp. Windchill Dew Point Humidity Wind Precip. Elev Updated Type